Time;durP1;ratioP1;P1;durP2;ratioP2;P2;SDS_P1;SDS_P2;PMS_P1;PMS_P2;Temp;Humidity;BMP_temperature;BMP_pressure;BME280_temperature;BME280_humidity;BME280_pressure;Samples;Min_cycle;Max_cycle;Signal;HPM_P1;HPM_P2
2022/04/19 00:01:15;;;;;;;3.97;2.85;;;8.20;79.30;;;;;;6188406;23;20261;-80
2022/04/19 00:03:42;;;;;;;3.63;3.30;;;8.20;79.60;;;;;;6188473;23;20645;-80
2022/04/19 00:06:09;;;;;;;4.35;3.17;;;8.10;79.90;;;;;;6188562;23;20209;-80
2022/04/19 00:08:36;;;;;;;3.50;3.13;;;8.10;79.20;;;;;;6187939;23;20198;-80
2022/04/19 00:11:04;;;;;;;3.38;2.95;;;8.10;79.50;;;;;;6188359;23;20179;-80
2022/04/19 00:13:31;;;;;;;3.15;2.85;;;8.10;80.10;;;;;;6189058;23;20249;-80
2022/04/19 00:15:58;;;;;;;3.00;2.80;;;8.10;80.70;;;;;;6188518;23;20199;-80
2022/04/19 00:18:26;;;;;;;3.25;2.97;;;8.10;81.20;;;;;;6189134;23;20179;-80
2022/04/19 00:20:54;;;;;;;2.75;2.55;;;8.00;81.20;;;;;;6188537;23;20561;-80
2022/04/19 00:23:21;;;;;;;4.25;2.92;;;7.90;81.40;;;;;;6188964;23;20178;-80
2022/04/19 00:25:50;;;;;;;3.17;2.97;;;7.90;81.90;;;;;;6188405;23;20203;-80
2022/04/19 00:28:18;;;;;;;2.83;2.60;;;7.90;82.30;;;;;;6188210;23;20665;-80
2022/04/19 00:30:46;;;;;;;3.05;2.65;;;7.90;82.30;;;;;;6187909;23;20186;-80
2022/04/19 00:33:12;;;;;;;5.05;3.63;;;7.80;82.50;;;;;;6187856;23;20217;-80
2022/04/19 00:35:39;;;;;;;3.03;2.83;;;7.80;82.70;;;;;;6188421;23;20206;-80
2022/04/19 00:38:06;;;;;;;3.85;3.40;;;7.80;83.10;;;;;;6192375;23;20179;-80
2022/04/19 00:40:33;;;;;;;3.20;3.00;;;7.80;83.60;;;;;;6188837;23;20190;-80
2022/04/19 00:43:01;;;;;;;3.13;2.80;;;7.80;84.60;;;;;;6187944;23;20189;-80
2022/04/19 00:45:31;;;;;;;3.58;3.28;;;7.80;85.30;;;;;;6187908;23;20199;-80
2022/04/19 00:47:58;;;;;;;3.70;3.35;;;7.70;85.40;;;;;;6188299;23;20711;-80
2022/04/19 00:50:25;;;;;;;3.10;2.80;;;7.70;86.30;;;;;;6187556;23;20179;-80
2022/04/19 00:52:52;;;;;;;2.70;2.50;;;7.60;87.00;;;;;;6188360;23;20192;-80
2022/04/19 00:55:20;;;;;;;4.18;3.15;;;7.40;87.30;;;;;;6187692;23;20198;-80
2022/04/19 00:57:46;;;;;;;3.38;3.17;;;7.40;87.80;;;;;;6188292;23;20179;-80
2022/04/19 01:00:14;;;;;;;4.32;3.67;;;7.40;88.00;;;;;;6187943;23;20182;-80
2022/04/19 01:02:42;;;;;;;4.32;3.90;;;7.40;88.30;;;;;;6187990;23;20178;-80
2022/04/19 01:05:10;;;;;;;4.05;3.63;;;7.40;88.40;;;;;;6187423;23;20202;-80
2022/04/19 01:07:39;;;;;;;3.92;3.63;;;7.40;87.70;;;;;;6187867;23;20179;-80
2022/04/19 01:10:07;;;;;;;4.60;4.20;;;7.30;87.60;;;;;;6188046;23;20204;-80
2022/04/19 01:15:19;;;;;;;5.20;3.60;;;7.30;88.60;;;;;;6188535;23;20269;-80
2022/04/19 01:17:49;;;;;;;3.58;3.28;;;7.20;89.00;;;;;;6188596;23;20261;-80
2022/04/19 01:20:16;;;;;;;4.50;3.75;;;7.20;89.50;;;;;;6187220;23;20159;-80
2022/04/19 01:22:48;;;;;;;3.75;3.45;;;7.20;90.00;;;;;;6187707;23;20193;-80
2022/04/19 01:25:18;;;;;;;5.25;3.60;;;7.20;90.20;;;;;;6187472;23;20202;-80
2022/04/19 01:27:45;;;;;;;4.20;3.90;;;7.10;90.50;;;;;;6188004;23;20189;-80
2022/04/19 01:30:12;;;;;;;4.90;3.30;;;7.10;90.70;;;;;;6187678;23;20198;-81
2022/04/19 01:32:39;;;;;;;2.92;2.72;;;7.10;90.40;;;;;;6187774;23;20185;-80
2022/04/19 01:35:11;;;;;;;3.83;3.47;;;7.10;90.20;;;;;;6188135;23;20182;-80
2022/04/19 01:37:40;;;;;;;4.18;3.88;;;7.00;90.30;;;;;;6187991;23;20170;-80
2022/04/19 01:40:20;;;;;;;3.63;3.22;;;7.00;90.40;;;;;;6204410;23;20547;-79
2022/04/19 01:42:52;;;;;;;4.03;3.50;;;7.00;90.50;;;;;;6203918;23;20198;-80
2022/04/19 01:45:20;;;;;;;3.47;3.00;;;7.00;90.30;;;;;;6187992;23;20202;-80
2022/04/19 01:47:47;;;;;;;3.42;3.22;;;6.90;90.50;;;;;;6187550;23;20206;-80
2022/04/19 01:50:16;;;;;;;3.78;3.47;;;6.90;90.90;;;;;;6187421;23;20198;-80
2022/04/19 01:52:44;;;;;;;3.38;3.08;;;6.80;91.20;;;;;;6187285;23;20193;-80
2022/04/19 01:55:13;;;;;;;3.03;2.80;;;6.80;91.30;;;;;;6187476;23;20221;-80
2022/04/19 01:57:41;;;;;;;5.68;3.60;;;6.80;91.40;;;;;;6187424;23;20186;-80
2022/04/19 02:00:09;;;;;;;3.65;3.35;;;6.80;91.60;;;;;;6187674;23;20616;-80
2022/04/19 02:02:36;;;;;;;3.80;3.40;;;6.80;91.70;;;;;;6187589;23;20188;-80
2022/04/19 02:05:03;;;;;;;3.72;2.78;;;6.80;91.70;;;;;;6188432;23;20191;-80
2022/04/19 02:07:32;;;;;;;3.70;3.05;;;6.80;91.80;;;;;;6187788;23;20183;-80
2022/04/19 02:09:59;;;;;;;4.40;3.17;;;6.70;91.90;;;;;;6187779;23;20221;-80
2022/04/19 02:12:27;;;;;;;5.40;3.75;;;6.80;92.10;;;;;;6187796;23;20182;-80
2022/04/19 02:14:54;;;;;;;3.25;2.95;;;6.70;92.10;;;;;;6187891;23;20193;-80
2022/04/19 02:17:22;;;;;;;2.75;2.55;;;6.70;92.20;;;;;;6191794;23;20178;-80
2022/04/19 02:19:49;;;;;;;3.58;3.28;;;6.70;92.30;;;;;;6188024;23;20217;-80
2022/04/19 02:22:17;;;;;;;2.95;2.70;;;6.70;92.40;;;;;;6187684;23;20221;-80
2022/04/19 02:24:43;;;;;;;3.55;3.35;;;6.70;92.20;;;;;;6187535;23;20533;-80
2022/04/19 02:27:10;;;;;;;3.33;3.03;;;6.60;92.30;;;;;;6187868;23;20198;-80
2022/04/19 02:29:38;;;;;;;3.65;2.78;;;6.60;92.30;;;;;;6187389;23;20692;-79
2022/04/19 02:32:06;;;;;;;3.67;3.20;;;6.50;92.60;;;;;;6187749;23;20239;-80
2022/04/19 02:34:33;;;;;;;3.25;2.85;;;6.50;93.10;;;;;;6187140;23;20182;-80
2022/04/19 02:36:59;;;;;;;3.30;3.00;;;6.50;93.10;;;;;;6187422;23;20202;-80
2022/04/19 02:39:26;;;;;;;3.50;3.20;;;6.50;93.10;;;;;;6187549;23;20182;-80
2022/04/19 02:41:55;;;;;;;3.03;2.83;;;6.50;93.20;;;;;;6187396;23;20726;-80
2022/04/19 02:44:21;;;;;;;4.65;3.88;;;6.40;93.10;;;;;;6187942;23;20182;-79
2022/04/19 02:46:50;;;;;;;3.45;3.17;;;6.40;93.10;;;;;;6187396;23;20203;-80
2022/04/19 02:49:17;;;;;;;3.00;2.80;;;6.40;93.20;;;;;;6187429;23;20194;-79
2022/04/19 02:51:44;;;;;;;2.95;2.75;;;6.30;93.10;;;;;;6186690;23;20179;-80
2022/04/19 02:54:11;;;;;;;3.75;3.30;;;6.30;93.50;;;;;;6186886;23;20650;-80
2022/04/19 02:56:37;;;;;;;3.03;2.70;;;6.30;93.70;;;;;;6187431;23;20202;-80
2022/04/19 02:59:04;;;;;;;3.75;3.22;;;6.30;94.00;;;;;;6188557;23;20178;-80
2022/04/19 03:01:31;;;;;;;3.42;3.10;;;6.30;94.20;;;;;;6188522;23;20179;-80
2022/04/19 03:04:00;;;;;;;3.88;3.50;;;6.30;94.20;;;;;;6188389;23;20179;-80
2022/04/19 03:06:26;;;;;;;3.88;3.58;;;6.30;94.60;;;;;;6189505;23;20199;-80
2022/04/19 03:08:53;;;;;;;3.35;3.05;;;6.20;95.30;;;;;;6189823;23;20685;-79
2022/04/19 03:11:20;;;;;;;3.88;2.60;;;6.20;95.80;;;;;;6190839;23;20188;-82
2022/04/19 03:13:47;;;;;;;4.50;4.10;;;6.20;96.10;;;;;;6191494;23;20179;-81
2022/04/19 03:16:14;;;;;;;3.95;3.65;;;6.20;96.20;;;;;;6190247;23;20720;-82
2022/04/19 03:18:42;;;;;;;3.78;3.10;;;6.20;96.20;;;;;;6190937;23;20233;-83
2022/04/19 03:21:14;;;;;;;3.33;3.03;;;6.20;96.40;;;;;;6190526;23;20200;-82
2022/04/19 03:29:11;;;;;;;4.38;4.03;;;6.20;96.70;;;;;;6189908;23;20262;-81
2022/04/19 03:31:38;;;;;;;7.63;3.78;;;6.10;96.50;;;;;;6189650;23;20179;-82
2022/04/19 03:34:06;;;;;;;4.85;3.92;;;6.10;96.30;;;;;;6189645;23;20211;-82
2022/04/19 03:36:35;;;;;;;5.13;4.55;;;6.10;96.30;;;;;;6189928;23;20548;-81
2022/04/19 03:39:01;;;;;;;3.80;3.50;;;6.10;96.30;;;;;;6189606;23;20185;-82
2022/04/19 03:41:28;;;;;;;4.28;3.95;;;6.20;96.30;;;;;;6189150;23;20183;-81
2022/04/19 03:43:55;;;;;;;4.15;3.50;;;6.10;96.40;;;;;;6189580;23;20183;-82
2022/04/19 03:46:22;;;;;;;3.50;3.30;;;6.10;96.50;;;;;;6189139;23;20202;-81
2022/04/19 03:48:48;;;;;;;5.70;5.30;;;6.10;96.50;;;;;;6189599;23;20270;-82
2022/04/19 03:51:15;;;;;;;4.13;3.83;;;6.10;96.60;;;;;;6189105;23;20183;-81
2022/04/19 03:53:43;;;;;;;4.15;3.80;;;6.10;96.70;;;;;;6191275;23;20234;-80
2022/04/19 03:56:10;;;;;;;5.05;4.57;;;6.00;96.80;;;;;;6190169;23;20690;-81
2022/04/19 03:58:38;;;;;;;4.40;3.25;;;6.00;96.90;;;;;;6189706;23;20204;-82
2022/04/19 04:01:05;;;;;;;4.68;4.38;;;6.00;97.00;;;;;;6188678;23;20179;-82
2022/04/19 04:03:32;;;;;;;3.88;3.50;;;6.00;97.10;;;;;;6189602;23;20183;-81
2022/04/19 04:05:59;;;;;;;4.03;3.72;;;5.90;97.20;;;;;;6189485;23;20740;-82
2022/04/19 04:08:26;;;;;;;5.18;3.33;;;5.90;97.30;;;;;;6190060;23;20174;-82
2022/04/19 04:10:54;;;;;;;5.10;3.42;;;5.90;97.50;;;;;;6189732;23;20174;-81
2022/04/19 04:13:20;;;;;;;5.95;4.00;;;5.80;97.70;;;;;;6190004;23;20190;-81
2022/04/19 04:15:47;;;;;;;4.00;3.70;;;5.80;97.90;;;;;;6189518;23;20568;-81
2022/04/19 04:18:14;;;;;;;3.97;3.78;;;5.80;98.10;;;;;;6189249;23;20182;-81
2022/04/19 04:20:40;;;;;;;4.00;3.78;;;5.80;98.30;;;;;;6189135;23;20650;-82
2022/04/19 04:23:07;;;;;;;4.43;4.03;;;5.80;98.40;;;;;;6189128;23;20186;-82
2022/04/19 04:25:34;;;;;;;4.20;3.90;;;5.70;98.60;;;;;;6189286;23;20217;-82
2022/04/19 04:28:02;;;;;;;3.53;3.22;;;5.70;98.70;;;;;;6190290;23;20552;-82
2022/04/19 04:30:29;;;;;;;4.13;3.83;;;5.70;98.90;;;;;;6189166;23;20179;-80
2022/04/19 04:32:55;;;;;;;6.05;3.75;;;5.70;99.20;;;;;;6190791;23;20178;-82
2022/04/19 04:35:22;;;;;;;4.68;4.28;;;5.60;99.10;;;;;;6189015;23;20198;-80
2022/04/19 04:37:49;;;;;;;3.63;3.38;;;5.70;99.30;;;;;;6188530;23;20182;-79
2022/04/19 04:40:15;;;;;;;3.38;3.17;;;5.70;99.50;;;;;;6188861;23;20198;-79
2022/04/19 04:42:42;;;;;;;5.57;3.72;;;5.70;99.70;;;;;;6189205;23;20190;-80
2022/04/19 04:45:11;;;;;;;4.55;4.15;;;5.70;99.80;;;;;;6189531;23;20186;-80
2022/04/19 04:50:22;;;;;;;5.50;3.45;;;5.70;99.70;;;;;;6190014;23;20162;-80
2022/04/19 04:52:52;;;;;;;4.45;4.05;;;5.70;99.50;;;;;;6189847;23;20190;-82
2022/04/19 04:55:19;;;;;;;3.90;3.60;;;5.70;99.50;;;;;;6190193;23;20202;-82
2022/04/19 04:57:45;;;;;;;4.07;3.67;;;5.80;99.60;;;;;;6190175;23;20178;-81
2022/04/19 05:00:14;;;;;;;3.60;3.30;;;5.80;99.50;;;;;;6189783;23;20252;-80
2022/04/19 05:02:41;;;;;;;4.00;3.70;;;5.80;99.30;;;;;;6189940;23;20200;-80
2022/04/19 05:05:08;;;;;;;4.90;4.50;;;5.90;99.30;;;;;;6191048;23;20183;-80
2022/04/19 05:07:38;;;;;;;4.65;4.25;;;5.90;99.30;;;;;;6193662;23;20183;-80
2022/04/19 05:10:06;;;;;;;4.72;4.32;;;5.90;99.40;;;;;;6193116;23;20179;-80
2022/04/19 05:12:33;;;;;;;5.93;4.30;;;6.00;99.50;;;;;;6190860;23;20697;-80
2022/04/19 05:15:00;;;;;;;6.85;4.97;;;6.00;99.70;;;;;;6190857;23;20178;-80
2022/04/19 05:17:29;;;;;;;5.43;4.90;;;6.00;99.70;;;;;;6190229;23;20186;-80
2022/04/19 05:19:56;;;;;;;4.50;4.13;;;6.10;99.70;;;;;;6190377;23;20198;-80
2022/04/19 05:22:23;;;;;;;5.93;5.43;;;6.20;99.60;;;;;;6190535;23;20185;-80
2022/04/19 05:24:50;;;;;;;4.95;4.55;;;6.20;99.50;;;;;;6189829;23;20201;-80
2022/04/19 05:27:17;;;;;;;5.93;5.32;;;6.30;99.40;;;;;;6190224;23;20211;-80
2022/04/19 05:29:43;;;;;;;5.43;5.03;;;6.40;99.40;;;;;;6189718;23;20178;-80
2022/04/19 05:32:10;;;;;;;4.35;4.05;;;6.50;99.30;;;;;;6189457;23;20178;-80
2022/04/19 05:34:38;;;;;;;5.00;4.22;;;6.50;99.20;;;;;;6189602;23;20179;-80
2022/04/19 05:37:05;;;;;;;6.47;5.35;;;6.70;99.20;;;;;;6189638;23;20224;-80
2022/04/19 05:39:34;;;;;;;5.45;4.57;;;6.80;98.70;;;;;;6189594;23;20530;-80
2022/04/19 05:42:01;;;;;;;4.95;4.50;;;6.90;98.50;;;;;;6189864;23;20668;-80
2022/04/19 05:44:28;;;;;;;7.10;4.85;;;6.90;98.30;;;;;;6188811;23;20183;-80
2022/04/19 05:46:55;;;;;;;7.85;5.82;;;7.00;98.10;;;;;;6188250;23;20202;-80
2022/04/19 05:49:21;;;;;;;5.20;4.70;;;7.10;97.90;;;;;;6189220;23;20747;-80
2022/04/19 05:51:50;;;;;;;8.23;4.60;;;7.20;97.60;;;;;;6189629;23;20188;-83
2022/04/19 05:54:23;;;;;;;4.35;4.05;;;7.40;97.10;;;;;;6190452;23;20672;-82
2022/04/19 05:56:50;;;;;;;7.95;5.30;;;7.50;96.70;;;;;;6189116;23;20289;-82
2022/04/19 05:59:17;;;;;;;9.23;4.38;;;7.50;96.10;;;;;;6189640;23;20180;-82
2022/04/19 06:07:18;;;;;;;9.15;5.10;;;7.80;97.30;;;;;;6163848;23;20542;-82
2022/04/19 06:09:45;;;;;;;9.45;5.57;;;7.90;97.00;;;;;;6189675;23;20183;-82
2022/04/19 06:12:12;;;;;;;10.75;6.00;;;8.00;96.00;;;;;;6189547;23;20180;-82
2022/04/19 06:14:41;;;;;;;6.22;5.63;;;8.10;95.60;;;;;;6190033;23;20203;-82
2022/04/19 06:17:12;;;;;;;8.60;6.45;;;8.20;95.90;;;;;;6193777;23;20724;-80
2022/04/19 06:19:39;;;;;;;9.82;6.22;;;8.20;96.10;;;;;;6197182;23;20167;-82
2022/04/19 06:22:06;;;;;;;7.78;5.80;;;8.40;96.00;;;;;;6189965;23;20646;-82
2022/04/19 06:24:34;;;;;;;5.50;5.10;;;8.40;95.90;;;;;;6189793;23;20231;-82
2022/04/19 06:27:03;;;;;;;8.60;5.38;;;8.50;95.80;;;;;;6189710;23;20222;-81
2022/04/19 06:29:42;;;;;;;5.85;4.90;;;8.60;95.20;;;;;;6189347;23;20186;-81
2022/04/19 06:32:11;;;;;;;11.03;6.00;;;8.70;94.50;;;;;;6189316;23;20190;-82
2022/04/19 06:34:38;;;;;;;6.70;4.80;;;8.70;93.30;;;;;;6188641;23;20922;-82
2022/04/19 06:37:23;;;;;;;5.90;4.90;;;8.70;93.10;;;;;;6189617;23;20431;-82
2022/04/19 06:40:39;;;;;;;6.13;5.05;;;8.70;93.00;;;;;;6119305;23;20500;-81
2022/04/19 06:43:09;;;;;;;5.68;5.07;;;8.80;93.30;;;;;;6083956;23;21050;-81
2022/04/19 06:45:43;;;;;;;5.80;5.30;;;8.80;92.40;;;;;;6190176;23;20297;-82
2022/04/19 06:48:14;;;;;;;4.75;4.35;;;8.80;92.60;;;;;;6189964;23;20658;-82
2022/04/19 06:50:52;;;;;;;5.43;4.80;;;8.90;92.30;;;;;;6189924;23;20169;-81
2022/04/19 06:53:25;;;;;;;5.70;5.10;;;9.00;92.40;;;;;;6189836;23;20199;-82
2022/04/19 06:56:08;;;;;;;;;;;;;;;;;;;;;
2022/04/19 07:09:19;;;;;;;5.77;5.37;;;9.50;92.20;;;;;;6071188;23;20449;-83
2022/04/19 07:11:48;;;;;;;5.33;4.80;;;9.60;92.20;;;;;;6076748;23;20422;-80
2022/04/19 07:14:15;;;;;;;5.43;4.73;;;9.70;92.00;;;;;;6191053;23;20400;-81
2022/04/19 07:16:42;;;;;;;6.30;5.70;;;9.90;92.20;;;;;;6189966;23;20441;-81
2022/04/19 07:19:09;;;;;;;5.80;5.40;;;10.00;91.70;;;;;;6190664;23;20740;-81
2022/04/19 07:27:35;;;;;;;5.20;4.80;;;10.30;91.50;;;;;;6098202;23;20510;-81
2022/04/19 07:32:56;;;;;;;4.97;4.57;;;10.50;88.90;;;;;;6188825;23;20476;-81
2022/04/19 07:35:23;;;;;;;4.63;4.20;;;10.60;88.50;;;;;;6166417;23;20432;-81
2022/04/19 07:37:51;;;;;;;4.27;3.80;;;10.70;87.10;;;;;;6191009;23;20424;-81
2022/04/19 07:40:25;;;;;;;5.93;3.87;;;10.80;87.70;;;;;;6164456;23;20963;-81
2022/04/19 07:42:56;;;;;;;4.33;3.93;;;10.90;88.90;;;;;;6190980;23;20424;-81
2022/04/19 07:45:25;;;;;;;4.43;4.00;;;11.00;88.80;;;;;;6191312;23;20432;-81
2022/04/19 07:47:56;;;;;;;5.57;3.70;;;11.10;87.70;;;;;;6190949;23;20417;-81
2022/04/19 07:50:26;;;;;;;4.80;4.40;;;11.30;87.00;;;;;;6190285;23;20480;-81
2022/04/19 07:52:53;;;;;;;6.60;4.50;;;11.50;85.20;;;;;;6190200;23;20499;-82
2022/04/19 07:55:24;;;;;;;4.93;4.43;;;11.60;84.50;;;;;;6190178;23;20437;-83
2022/04/19 07:58:02;;;;;;;5.03;4.53;;;11.70;81.90;;;;;;6191919;23;20563;-83
2022/04/19 08:00:30;;;;;;;4.40;3.90;;;11.70;81.40;;;;;;6193932;23;20410;-81
2022/04/19 08:02:59;;;;;;;5.17;4.67;;;11.60;76.30;;;;;;6197163;23;20414;-82
2022/04/19 08:05:28;;;;;;;4.30;3.90;;;11.70;76.50;;;;;;6196223;23;20460;-81
2022/04/19 08:08:04;;;;;;;5.93;5.40;;;11.90;77.90;;;;;;6195473;23;20399;-82
2022/04/19 08:10:49;;;;;;;10.57;5.07;;;12.00;76.50;;;;;;6195090;23;20476;-82
2022/04/19 08:13:22;;;;;;;4.17;3.70;;;12.10;75.90;;;;;;6193303;23;20422;-81
2022/04/19 08:15:49;;;;;;;4.13;3.73;;;12.20;75.40;;;;;;6190559;23;20448;-81
2022/04/19 08:18:18;;;;;;;6.03;5.03;;;12.30;75.10;;;;;;6189768;23;20422;-81
2022/04/19 08:20:48;;;;;;;5.57;5.00;;;12.40;74.50;;;;;;6189110;23;20831;-81
2022/04/19 08:23:16;;;;;;;6.80;4.50;;;12.50;75.10;;;;;;6190672;23;20422;-81
2022/04/19 08:29:08;;;;;;;6.30;4.60;;;12.80;71.80;;;;;;6191179;23;20414;-82
2022/04/19 08:31:38;;;;;;;6.40;4.77;;;12.90;70.10;;;;;;6195571;23;20825;-82
2022/04/19 08:34:05;;;;;;;5.90;3.93;;;13.00;67.60;;;;;;6212586;23;20451;-81
2022/04/19 08:36:36;;;;;;;3.87;3.50;;;13.00;65.10;;;;;;6201200;23;20468;-83
2022/04/19 08:39:10;;;;;;;4.70;4.30;;;13.10;66.70;;;;;;6193876;23;20394;-83
2022/04/19 08:41:37;;;;;;;3.87;3.50;;;13.20;66.00;;;;;;6193210;23;20858;-82
2022/04/19 08:44:08;;;;;;;6.90;5.13;;;13.30;63.90;;;;;;6194560;23;20409;-82
2022/04/19 08:47:03;;;;;;;3.70;3.40;;;13.50;63.20;;;;;;6194290;23;20507;-83
2022/04/19 08:49:32;;;;;;;3.70;3.40;;;13.60;62.50;;;;;;6201238;23;21102;-83
2022/04/19 08:52:00;;;;;;;3.77;3.33;;;13.70;61.60;;;;;;6192930;23;20448;-83
2022/04/19 08:57:49;;;;;;;3.30;2.93;;;14.00;61.80;;;;;;6191503;23;20474;-83
2022/04/19 09:00:34;;;;;;;5.80;4.00;;;14.10;59.60;;;;;;6183410;23;20422;-82
2022/04/19 09:03:14;;;;;;;4.50;3.83;;;14.10;59.00;;;;;;6194125;23;20722;-81
2022/04/19 09:09:10;;;;;;;3.73;3.13;;;14.30;59.10;;;;;;6171406;23;20462;-81
2022/04/19 09:11:37;;;;;;;2.83;2.53;;;14.40;58.40;;;;;;6225892;23;20545;-86
2022/04/19 09:14:08;;;;;;;3.47;3.17;;;14.50;59.50;;;;;;6225924;23;20423;-87
2022/04/19 09:16:34;;;;;;;5.00;3.27;;;14.60;59.00;;;;;;6222706;23;20409;-86
2022/04/19 09:19:03;;;;;;;4.33;3.90;;;14.70;59.30;;;;;;6226447;23;20417;-86
2022/04/19 09:21:37;;;;;;;3.90;2.90;;;14.70;57.70;;;;;;6228893;23;20426;-86
2022/04/19 09:24:18;;;;;;;5.90;3.70;;;14.70;55.80;;;;;;6227106;23;20374;-88
2022/04/19 09:26:45;;;;;;;4.07;3.40;;;14.60;56.90;;;;;;6228277;23;20383;-87
2022/04/19 09:29:20;;;;;;;4.57;3.50;;;14.70;57.10;;;;;;6228145;23;20437;-87
2022/04/19 09:34:36;;;;;;;3.90;3.60;;;15.00;57.70;;;;;;6224155;23;20434;-86
2022/04/19 09:37:14;;;;;;;4.33;3.33;;;15.00;57.80;;;;;;6231755;23;20465;-85
2022/04/19 09:43:24;;;;;;;4.30;3.00;;;15.40;54.90;;;;;;6113227;23;20389;-86
2022/04/19 09:45:56;;;;;;;4.07;3.50;;;15.40;53.80;;;;;;6112701;23;20403;-85
2022/04/19 09:48:33;;;;;;;3.03;2.83;;;15.50;56.10;;;;;;6109778;23;20417;-85
2022/04/19 09:51:34;;;;;;;3.93;3.60;;;15.70;55.60;;;;;;6116546;23;20438;-85
2022/04/19 09:54:03;;;;;;;4.67;3.93;;;15.60;54.30;;;;;;6131757;23;20437;-85
2022/04/19 09:56:35;;;;;;;6.77;3.83;;;15.70;54.20;;;;;;6232232;23;20445;-86
2022/04/19 09:59:04;;;;;;;4.63;4.20;;;15.80;55.20;;;;;;6233412;23;20394;-85
2022/04/19 10:09:46;;;;;;;5.50;3.50;;;16.10;55.80;;;;;;6230302;23;20436;-87
2022/04/19 10:12:14;;;;;;;3.80;3.23;;;16.40;55.60;;;;;;6230991;23;20819;-86
2022/04/19 10:14:46;;;;;;;3.80;3.50;;;16.40;54.10;;;;;;6229657;23;20414;-86
2022/04/19 10:17:21;;;;;;;4.23;3.83;;;16.60;55.80;;;;;;6230358;23;20415;-86
2022/04/19 10:19:55;;;;;;;4.00;3.60;;;16.80;54.10;;;;;;6204540;23;20502;-86
2022/04/19 10:22:27;;;;;;;3.97;3.50;;;17.00;56.50;;;;;;6231456;23;20415;-86
2022/04/19 10:24:57;;;;;;;3.47;3.17;;;17.30;54.40;;;;;;6231251;23;20415;-86
2022/04/19 10:27:33;;;;;;;3.63;3.33;;;17.40;52.40;;;;;;6229709;23;20424;-87
2022/04/19 11:58:36;;;;;;;4.57;4.00;;;22.70;38.40;;;;;;6195143;23;20347;-84
2022/04/19 12:01:07;;;;;;;3.40;3.10;;;23.30;38.90;;;;;;6201035;23;20476;-85
2022/04/19 12:07:23;;;;;;;5.13;4.73;;;24.60;37.90;;;;;;6209009;23;20434;-84
2022/04/19 12:46:30;;;;;;;4.53;4.13;;;22.80;32.30;;;;;;6176829;23;20430;-84
2022/04/19 12:55:36;;;;;;;6.33;4.40;;;24.40;34.10;;;;;;6095980;23;20366;-84
2022/04/19 14:52:51;;;;;;;6.00;4.13;;;28.20;30.60;;;;;;6172532;23;20443;-85
2022/04/19 14:55:38;;;;;;;;;;;;;;;;;;;;;
2022/04/19 15:01:08;;;;;;;5.10;4.77;;;30.00;29.10;;;;;;6170608;23;20652;-86
2022/04/19 15:03:51;;;;;;;6.37;5.43;;;29.90;28.90;;;;;;6173310;23;20387;-86
2022/04/19 15:06:18;;;;;;;4.83;4.53;;;28.40;28.70;;;;;;6168754;23;20410;-85
2022/04/19 15:08:46;;;;;;;5.60;5.00;;;27.90;30.00;;;;;;6166216;23;20938;-84
2022/04/19 15:11:13;;;;;;;4.63;4.23;;;27.20;29.90;;;;;;6167911;23;20425;-84
2022/04/19 15:13:44;;;;;;;5.50;5.00;;;27.40;30.70;;;;;;6183353;22;20464;-82
2022/04/19 15:16:10;;;;;;;5.40;5.00;;;27.00;30.20;;;;;;6195420;23;20400;-83
2022/04/19 15:18:37;;;;;;;6.80;4.80;;;27.60;30.40;;;;;;6195993;23;20413;-84
2022/04/19 15:21:04;;;;;;;4.67;4.37;;;28.10;29.80;;;;;;6193113;23;20705;-84
2022/04/19 15:23:31;;;;;;;5.40;4.50;;;28.30;29.60;;;;;;6193240;23;20429;-84
2022/04/19 15:25:59;;;;;;;3.57;3.30;;;26.60;29.60;;;;;;6193675;23;20415;-84
2022/04/19 15:28:25;;;;;;;4.53;4.23;;;27.30;31.10;;;;;;6192763;23;20410;-84
2022/04/19 15:30:52;;;;;;;3.40;3.10;;;25.10;30.10;;;;;;6192499;23;21089;-84
2022/04/19 15:33:19;;;;;;;5.33;3.97;;;24.70;32.30;;;;;;6192016;23;20454;-84
2022/04/19 15:35:46;;;;;;;3.77;3.47;;;25.10;32.70;;;;;;6195802;23;20467;-84
2022/04/19 15:38:13;;;;;;;4.10;3.80;;;25.20;32.50;;;;;;6193596;23;20415;-82
2022/04/19 15:40:40;;;;;;;3.70;3.40;;;24.80;31.70;;;;;;6192642;23;20443;-83
2022/04/19 15:43:09;;;;;;;4.87;4.47;;;25.00;32.20;;;;;;6182829;23;20436;-82
2022/04/19 16:02:44;;;;;;;4.53;4.20;;;23.70;33.90;;;;;;6038927;23;20490;-84
2022/04/19 16:05:22;;;;;;;4.13;3.70;;;24.10;33.50;;;;;;6042236;23;20556;-85
2022/04/19 16:14:49;;;;;;;4.30;4.00;;;23.90;32.50;;;;;;5958666;24;20860;-83
2022/04/19 16:24:10;;;;;;;3.90;3.50;;;22.50;33.30;;;;;;6074752;23;20487;-83
2022/04/19 16:26:37;;;;;;;4.30;3.43;;;22.60;34.80;;;;;;6149119;23;20419;-81
2022/04/19 16:29:14;;;;;;;4.17;3.73;;;22.70;35.10;;;;;;6159147;23;20423;-83
2022/04/19 16:32:05;;;;;;;3.40;3.10;;;22.80;35.00;;;;;;6192071;23;20441;-85
2022/04/19 16:34:32;;;;;;;3.43;3.23;;;23.00;34.30;;;;;;6218764;23;20417;-84
2022/04/19 16:36:58;;;;;;;4.60;3.70;;;23.70;34.70;;;;;;6218695;23;20424;-84
2022/04/19 16:39:25;;;;;;;3.57;3.23;;;24.30;34.10;;;;;;6222820;23;20501;-84
2022/04/19 16:41:54;;;;;;;4.13;3.73;;;24.30;32.50;;;;;;6219588;23;20585;-85
2022/04/19 16:44:21;;;;;;;3.80;3.30;;;24.10;32.30;;;;;;6219020;23;20461;-84
2022/04/19 16:46:48;;;;;;;4.40;2.80;;;24.10;33.20;;;;;;6221076;23;20412;-85
2022/04/19 16:49:16;;;;;;;3.53;3.23;;;24.60;33.40;;;;;;6221356;23;20418;-83
2022/04/19 16:51:42;;;;;;;3.63;3.37;;;25.20;32.60;;;;;;6219981;23;20401;-81
2022/04/19 16:54:11;;;;;;;6.07;4.00;;;25.40;31.20;;;;;;6221954;23;20745;-82
2022/04/19 16:56:38;;;;;;;3.90;3.60;;;25.60;31.40;;;;;;6223436;23;20416;-82
2022/04/19 16:59:04;;;;;;;3.77;3.03;;;26.00;30.80;;;;;;6222436;23;20931;-82
2022/04/19 17:01:31;;;;;;;3.13;2.80;;;26.60;30.30;;;;;;6224791;23;20407;-83
2022/04/19 17:03:59;;;;;;;4.67;3.37;;;26.80;30.20;;;;;;6227704;23;20436;-83
2022/04/19 17:06:28;;;;;;;5.63;3.50;;;26.50;29.90;;;;;;6227387;23;20419;-82
2022/04/19 17:08:55;;;;;;;3.30;3.10;;;26.20;30.00;;;;;;6226431;23;20402;-83
2022/04/19 17:11:22;;;;;;;3.53;3.03;;;26.60;30.10;;;;;;6226899;23;20921;-84
2022/04/19 17:13:49;;;;;;;4.27;2.80;;;27.00;30.20;;;;;;6225878;23;20455;-82
2022/04/19 17:16:16;;;;;;;3.27;3.00;;;26.60;29.90;;;;;;6225968;23;20412;-83
2022/04/19 17:18:43;;;;;;;3.17;2.97;;;26.00;29.90;;;;;;6226919;23;20410;-83
2022/04/19 17:21:10;;;;;;;3.10;2.90;;;25.60;30.00;;;;;;6224888;23;20418;-82
2022/04/19 17:23:38;;;;;;;3.30;2.07;;;26.00;30.60;;;;;;6225920;23;20452;-84
2022/04/19 17:26:05;;;;;;;2.97;2.77;;;26.00;30.90;;;;;;6240186;23;20399;-81
2022/04/19 17:28:32;;;;;;;2.63;2.43;;;25.40;30.00;;;;;;6241430;23;20407;-82
2022/04/19 17:31:00;;;;;;;3.00;2.80;;;25.40;30.50;;;;;;6227139;23;20406;-83
2022/04/19 17:33:27;;;;;;;3.70;2.70;;;24.80;30.80;;;;;;6226077;23;20428;-82
2022/04/19 17:35:53;;;;;;;3.03;2.83;;;24.60;31.60;;;;;;6226507;23;20410;-83
2022/04/19 17:38:20;;;;;;;2.60;2.40;;;24.50;32.20;;;;;;6228238;23;20418;-82
2022/04/19 17:40:49;;;;;;;3.00;2.77;;;24.50;32.20;;;;;;6226425;23;20413;-83
2022/04/19 17:43:15;;;;;;;3.13;2.93;;;24.30;32.00;;;;;;6226603;23;20461;-82
2022/04/19 17:45:42;;;;;;;2.93;2.73;;;23.80;32.00;;;;;;6227201;23;20409;-81
2022/04/19 17:48:09;;;;;;;3.17;2.97;;;23.10;32.70;;;;;;6226400;23;20409;-82
2022/04/19 17:56:39;;;;;;;3.30;3.10;;;21.90;33.90;;;;;;6227309;23;20443;-81
2022/04/19 17:59:45;;;;;;;3.40;2.83;;;21.10;35.10;;;;;;6222359;23;20808;-82
2022/04/19 18:05:20;;;;;;;3.40;2.70;;;20.00;36.60;;;;;;6202435;23;20404;-82
2022/04/19 18:07:51;;;;;;;5.57;3.53;;;19.30;37.10;;;;;;6221623;23;20423;-81
2022/04/19 18:10:22;;;;;;;3.50;3.30;;;18.90;37.90;;;;;;6222477;23;20412;-81
2022/04/19 18:12:54;;;;;;;3.03;2.80;;;18.70;38.90;;;;;;6222183;23;20820;-81
2022/04/19 18:15:21;;;;;;;3.00;2.43;;;18.40;39.20;;;;;;6222564;23;20388;-81
2022/04/19 18:17:48;;;;;;;3.27;3.03;;;18.10;39.30;;;;;;6222567;23;20407;-81
2022/04/19 18:20:19;;;;;;;4.40;2.70;;;17.90;39.90;;;;;;6220787;23;20419;-81
2022/04/19 18:25:42;;;;;;;2.87;2.67;;;17.40;40.40;;;;;;6223478;23;20705;-81
2022/04/19 18:28:15;;;;;;;2.70;2.37;;;17.30;40.90;;;;;;6222051;23;20409;-81
2022/04/19 18:30:44;;;;;;;2.97;2.77;;;17.00;41.40;;;;;;6219167;23;20487;-80
2022/04/19 18:33:13;;;;;;;2.30;2.10;;;16.70;41.90;;;;;;6218739;23;20807;-80
2022/04/19 18:38:28;;;;;;;2.37;2.17;;;16.40;42.60;;;;;;6215253;23;20919;-81
2022/04/19 18:40:58;;;;;;;4.07;2.33;;;16.20;42.60;;;;;;6219704;23;20401;-81
2022/04/19 18:43:38;;;;;;;2.27;2.07;;;16.00;43.00;;;;;;6221222;23;20953;-81
2022/04/19 18:46:05;;;;;;;2.20;2.03;;;15.80;43.50;;;;;;6221440;23;20443;-81
2022/04/19 18:48:39;;;;;;;2.90;2.30;;;15.60;43.60;;;;;;6224771;23;20735;-84
2022/04/19 18:51:43;;;;;;;2.40;2.03;;;15.40;44.80;;;;;;6225729;23;20413;-84
2022/04/19 18:54:13;;;;;;;2.30;2.10;;;15.40;44.80;;;;;;6224615;23;20443;-85
2022/04/19 18:56:44;;;;;;;1.90;1.73;;;15.30;45.50;;;;;;6223335;23;20920;-85
2022/04/19 18:59:23;;;;;;;2.73;2.53;;;15.20;45.90;;;;;;6223595;23;20444;-85
2022/04/19 19:01:54;;;;;;;2.33;1.90;;;15.10;46.10;;;;;;6196080;23;20792;-84
2022/04/19 19:07:22;;;;;;;3.03;2.23;;;14.90;47.20;;;;;;6223087;23;20428;-85
2022/04/19 19:09:53;;;;;;;2.93;2.73;;;14.80;47.70;;;;;;6224304;23;20403;-84